sensor_id;sensor_type;location;lat;lon;timestamp;temperature;humidity
7117;DHT22;3600;48.568;7.870;2023-02-23T00:01:58;10.40;99.90
7117;DHT22;3600;48.568;7.870;2023-02-23T00:04:34;10.40;99.90
7117;DHT22;3600;48.568;7.870;2023-02-23T00:07:02;10.40;99.90
7117;DHT22;3600;48.568;7.870;2023-02-23T00:09:28;10.40;99.90
7117;DHT22;3600;48.568;7.870;2023-02-23T00:12:03;10.40;99.90
7117;DHT22;3600;48.568;7.870;2023-02-23T00:14:35;10.40;99.90
7117;DHT22;3600;48.568;7.870;2023-02-23T00:17:03;10.40;99.90
7117;DHT22;3600;48.568;7.870;2023-02-23T00:19:30;10.40;99.90
7117;DHT22;3600;48.568;7.870;2023-02-23T00:21:59;10.30;99.90
7117;DHT22;3600;48.568;7.870;2023-02-23T00:24:26;10.30;99.90
7117;DHT22;3600;48.568;7.870;2023-02-23T00:26:53;10.30;99.90
7117;DHT22;3600;48.568;7.870;2023-02-23T00:29:22;10.30;99.90
7117;DHT22;3600;48.568;7.870;2023-02-23T00:31:51;10.30;99.90
7117;DHT22;3600;48.568;7.870;2023-02-23T00:34:19;10.30;99.90
7117;DHT22;3600;48.568;7.870;2023-02-23T00:36:51;10.20;99.90
7117;DHT22;3600;48.568;7.870;2023-02-23T00:39:20;10.20;99.90
7117;DHT22;3600;48.568;7.870;2023-02-23T00:41:49;10.20;99.90
7117;DHT22;3600;48.568;7.870;2023-02-23T00:44:18;10.20;99.90
7117;DHT22;3600;48.568;7.870;2023-02-23T00:46:46;10.20;99.90
7117;DHT22;3600;48.568;7.870;2023-02-23T00:49:18;10.20;99.90
7117;DHT22;3600;48.568;7.870;2023-02-23T00:51:45;10.20;99.90
7117;DHT22;3600;48.568;7.870;2023-02-23T00:54:13;10.20;99.90
7117;DHT22;3600;48.568;7.870;2023-02-23T00:56:40;10.10;99.90
7117;DHT22;3600;48.568;7.870;2023-02-23T00:59:07;10.20;99.90
7117;DHT22;3600;48.568;7.870;2023-02-23T01:01:34;10.20;99.90
7117;DHT22;3600;48.568;7.870;2023-02-23T01:04:03;10.10;99.90
7117;DHT22;3600;48.568;7.870;2023-02-23T01:06:30;10.10;99.90
7117;DHT22;3600;48.568;7.870;2023-02-23T01:08:57;10.10;99.90
7117;DHT22;3600;48.568;7.870;2023-02-23T01:11:26;10.10;99.90
7117;DHT22;3600;48.568;7.870;2023-02-23T01:13:57;10.10;99.90
7117;DHT22;3600;48.568;7.870;2023-02-23T01:16:28;10.10;99.90
7117;DHT22;3600;48.568;7.870;2023-02-23T01:18:57;10.10;99.90
7117;DHT22;3600;48.568;7.870;2023-02-23T01:21:27;10.10;99.90
7117;DHT22;3600;48.568;7.870;2023-02-23T01:23:55;10.10;99.90
7117;DHT22;3600;48.568;7.870;2023-02-23T01:26:28;10.10;99.90
7117;DHT22;3600;48.568;7.870;2023-02-23T01:28:58;10.10;99.90
7117;DHT22;3600;48.568;7.870;2023-02-23T01:31:27;10.10;99.90
7117;DHT22;3600;48.568;7.870;2023-02-23T01:33:59;10.10;99.90
7117;DHT22;3600;48.568;7.870;2023-02-23T01:36:27;10.10;99.90
7117;DHT22;3600;48.568;7.870;2023-02-23T01:38:55;10.10;99.90
7117;DHT22;3600;48.568;7.870;2023-02-23T01:41:23;10.00;99.90
7117;DHT22;3600;48.568;7.870;2023-02-23T01:44:04;10.00;99.90
7117;DHT22;3600;48.568;7.870;2023-02-23T01:46:33;10.00;99.90
7117;DHT22;3600;48.568;7.870;2023-02-23T01:49:02;10.00;99.90
7117;DHT22;3600;48.568;7.870;2023-02-23T01:51:31;10.00;99.90
7117;DHT22;3600;48.568;7.870;2023-02-23T01:54:03;10.00;99.90
7117;DHT22;3600;48.568;7.870;2023-02-23T01:56:36;10.00;99.90
7117;DHT22;3600;48.568;7.870;2023-02-23T01:59:11;10.00;99.90
7117;DHT22;3600;48.568;7.870;2023-02-23T02:01:38;10.00;99.90
7117;DHT22;3600;48.568;7.870;2023-02-23T02:04:07;10.00;99.90
7117;DHT22;3600;48.568;7.870;2023-02-23T02:06:35;10.00;99.90
7117;DHT22;3600;48.568;7.870;2023-02-23T02:09:06;10.00;99.90
7117;DHT22;3600;48.568;7.870;2023-02-23T02:11:36;10.00;99.90
7117;DHT22;3600;48.568;7.870;2023-02-23T02:45:00;9.90;99.90
7117;DHT22;3600;48.568;7.870;2023-02-23T02:50:44;9.90;99.90
7117;DHT22;3600;48.568;7.870;2023-02-23T02:53:17;9.90;99.90
7117;DHT22;3600;48.568;7.870;2023-02-23T02:55:47;9.90;99.90
7117;DHT22;3600;48.568;7.870;2023-02-23T02:58:15;9.90;99.90
7117;DHT22;3600;48.568;7.870;2023-02-23T03:00:46;9.90;99.90
7117;DHT22;3600;48.568;7.870;2023-02-23T03:03:50;9.90;99.90
7117;DHT22;3600;48.568;7.870;2023-02-23T03:06:50;9.90;99.90
7117;DHT22;3600;48.568;7.870;2023-02-23T03:09:43;9.90;99.90
7117;DHT22;3600;48.568;7.870;2023-02-23T03:15:40;9.90;99.90
7117;DHT22;3600;48.568;7.870;2023-02-23T03:21:53;9.90;99.90
7117;DHT22;3600;48.568;7.870;2023-02-23T03:24:57;9.90;99.90
7117;DHT22;3600;48.568;7.870;2023-02-23T03:28:14;9.90;99.90
7117;DHT22;3600;48.568;7.870;2023-02-23T03:31:37;9.90;99.90
7117;DHT22;3600;48.568;7.870;2023-02-23T03:34:42;9.90;99.90
7117;DHT22;3600;48.568;7.870;2023-02-23T03:37:42;9.90;99.90
7117;DHT22;3600;48.568;7.870;2023-02-23T03:40:33;9.90;99.90
7117;DHT22;3600;48.568;7.870;2023-02-23T03:43:31;9.90;99.90
7117;DHT22;3600;48.568;7.870;2023-02-23T03:46:18;10.00;99.90
7117;DHT22;3600;48.568;7.870;2023-02-23T03:49:07;9.90;99.90
7117;DHT22;3600;48.568;7.870;2023-02-23T03:52:13;9.90;99.90
7117;DHT22;3600;48.568;7.870;2023-02-23T03:55:03;9.90;99.90
7117;DHT22;3600;48.568;7.870;2023-02-23T03:57:52;9.90;99.90
7117;DHT22;3600;48.568;7.870;2023-02-23T04:00:47;9.90;99.90
7117;DHT22;3600;48.568;7.870;2023-02-23T04:03:36;9.90;99.90
7117;DHT22;3600;48.568;7.870;2023-02-23T04:06:27;9.80;99.90
7117;DHT22;3600;48.568;7.870;2023-02-23T04:09:15;9.80;99.90
7117;DHT22;3600;48.568;7.870;2023-02-23T04:12:10;9.90;99.90
7117;DHT22;3600;48.568;7.870;2023-02-23T04:17:30;9.70;99.90
7117;DHT22;3600;48.568;7.870;2023-02-23T04:19:57;9.60;99.90
7117;DHT22;3600;48.568;7.870;2023-02-23T04:22:24;9.50;99.90
7117;DHT22;3600;48.568;7.870;2023-02-23T04:24:51;9.50;99.90
7117;DHT22;3600;48.568;7.870;2023-02-23T04:27:18;9.40;99.90
7117;DHT22;3600;48.568;7.870;2023-02-23T04:29:45;9.30;99.90
7117;DHT22;3600;48.568;7.870;2023-02-23T04:32:14;9.30;99.90
7117;DHT22;3600;48.568;7.870;2023-02-23T04:34:42;9.30;99.90
7117;DHT22;3600;48.568;7.870;2023-02-23T04:37:09;9.30;99.90
7117;DHT22;3600;48.568;7.870;2023-02-23T04:39:36;9.30;99.90
7117;DHT22;3600;48.568;7.870;2023-02-23T04:42:03;9.30;99.90
7117;DHT22;3600;48.568;7.870;2023-02-23T04:44:30;9.30;99.90
7117;DHT22;3600;48.568;7.870;2023-02-23T04:46:57;9.30;99.90
7117;DHT22;3600;48.568;7.870;2023-02-23T04:49:24;9.30;99.90
7117;DHT22;3600;48.568;7.870;2023-02-23T04:51:50;9.20;99.90
7117;DHT22;3600;48.568;7.870;2023-02-23T04:54:17;9.30;99.90
7117;DHT22;3600;48.568;7.870;2023-02-23T04:56:44;9.20;99.90
7117;DHT22;3600;48.568;7.870;2023-02-23T04:59:10;9.20;99.90
7117;DHT22;3600;48.568;7.870;2023-02-23T05:01:38;9.10;99.90
7117;DHT22;3600;48.568;7.870;2023-02-23T05:04:05;9.00;99.90
7117;DHT22;3600;48.568;7.870;2023-02-23T05:06:32;8.90;99.90
7117;DHT22;3600;48.568;7.870;2023-02-23T05:08:59;8.80;99.90
7117;DHT22;3600;48.568;7.870;2023-02-23T05:11:29;8.80;99.90
7117;DHT22;3600;48.568;7.870;2023-02-23T05:13:55;8.90;99.90
7117;DHT22;3600;48.568;7.870;2023-02-23T05:16:22;8.90;99.90
7117;DHT22;3600;48.568;7.870;2023-02-23T05:18:49;9.00;99.90
7117;DHT22;3600;48.568;7.870;2023-02-23T05:21:16;9.00;99.90
7117;DHT22;3600;48.568;7.870;2023-02-23T05:23:43;8.90;99.90
7117;DHT22;3600;48.568;7.870;2023-02-23T05:26:11;8.90;99.90
7117;DHT22;3600;48.568;7.870;2023-02-23T05:28:39;8.90;99.90
7117;DHT22;3600;48.568;7.870;2023-02-23T05:31:07;9.00;99.90
7117;DHT22;3600;48.568;7.870;2023-02-23T05:33:35;9.00;99.90
7117;DHT22;3600;48.568;7.870;2023-02-23T05:36:13;9.10;99.90
7117;DHT22;3600;48.568;7.870;2023-02-23T05:38:43;9.10;99.90
7117;DHT22;3600;48.568;7.870;2023-02-23T05:41:12;9.10;99.90
7117;DHT22;3600;48.568;7.870;2023-02-23T05:43:39;9.20;99.90
7117;DHT22;3600;48.568;7.870;2023-02-23T05:46:14;9.10;99.90
7117;DHT22;3600;48.568;7.870;2023-02-23T05:48:42;9.10;99.90
7117;DHT22;3600;48.568;7.870;2023-02-23T05:51:11;9.10;99.90
7117;DHT22;3600;48.568;7.870;2023-02-23T05:53:39;9.10;99.90
7117;DHT22;3600;48.568;7.870;2023-02-23T05:56:09;9.10;99.90
7117;DHT22;3600;48.568;7.870;2023-02-23T05:58:37;9.10;99.90
7117;DHT22;3600;48.568;7.870;2023-02-23T06:01:04;9.10;99.90
7117;DHT22;3600;48.568;7.870;2023-02-23T06:03:30;9.20;99.90
7117;DHT22;3600;48.568;7.870;2023-02-23T06:05:57;9.20;99.90
7117;DHT22;3600;48.568;7.870;2023-02-23T06:08:24;9.30;99.90
7117;DHT22;3600;48.568;7.870;2023-02-23T06:10:52;9.30;99.90
7117;DHT22;3600;48.568;7.870;2023-02-23T06:13:19;9.40;99.90
7117;DHT22;3600;48.568;7.870;2023-02-23T06:15:46;9.40;99.90
7117;DHT22;3600;48.568;7.870;2023-02-23T06:18:14;9.40;99.90
7117;DHT22;3600;48.568;7.870;2023-02-23T06:20:44;9.40;99.90
7117;DHT22;3600;48.568;7.870;2023-02-23T06:23:11;9.40;99.90
7117;DHT22;3600;48.568;7.870;2023-02-23T06:25:38;9.40;99.90
7117;DHT22;3600;48.568;7.870;2023-02-23T06:28:05;9.40;99.90
7117;DHT22;3600;48.568;7.870;2023-02-23T06:30:34;9.40;99.90
7117;DHT22;3600;48.568;7.870;2023-02-23T06:33:01;9.40;99.90
7117;DHT22;3600;48.568;7.870;2023-02-23T06:35:28;9.40;99.90
7117;DHT22;3600;48.568;7.870;2023-02-23T06:37:55;9.50;99.90
7117;DHT22;3600;48.568;7.870;2023-02-23T06:40:22;9.40;99.90
7117;DHT22;3600;48.568;7.870;2023-02-23T06:42:49;9.50;99.90
7117;DHT22;3600;48.568;7.870;2023-02-23T06:45:16;9.50;99.90
7117;DHT22;3600;48.568;7.870;2023-02-23T06:47:45;9.50;99.90
7117;DHT22;3600;48.568;7.870;2023-02-23T06:50:13;9.50;99.90
7117;DHT22;3600;48.568;7.870;2023-02-23T06:52:41;9.30;99.90
7117;DHT22;3600;48.568;7.870;2023-02-23T06:55:08;9.20;99.90
7117;DHT22;3600;48.568;7.870;2023-02-23T06:57:35;9.10;99.90
7117;DHT22;3600;48.568;7.870;2023-02-23T07:00:02;9.20;99.90
7117;DHT22;3600;48.568;7.870;2023-02-23T07:02:29;9.00;99.90
7117;DHT22;3600;48.568;7.870;2023-02-23T07:04:56;9.00;99.90
7117;DHT22;3600;48.568;7.870;2023-02-23T07:07:24;9.00;99.90
7117;DHT22;3600;48.568;7.870;2023-02-23T07:09:51;9.00;99.90
7117;DHT22;3600;48.568;7.870;2023-02-23T07:12:17;9.00;99.90
7117;DHT22;3600;48.568;7.870;2023-02-23T07:14:44;9.10;99.90
7117;DHT22;3600;48.568;7.870;2023-02-23T07:17:11;9.20;99.90
7117;DHT22;3600;48.568;7.870;2023-02-23T07:19:38;9.30;99.90
7117;DHT22;3600;48.568;7.870;2023-02-23T07:22:05;9.30;99.90
7117;DHT22;3600;48.568;7.870;2023-02-23T07:24:31;9.30;99.90
7117;DHT22;3600;48.568;7.870;2023-02-23T07:26:58;9.40;99.90
7117;DHT22;3600;48.568;7.870;2023-02-23T07:29:25;9.40;99.90
7117;DHT22;3600;48.568;7.870;2023-02-23T07:31:53;9.40;99.90
7117;DHT22;3600;48.568;7.870;2023-02-23T07:34:20;9.30;99.90
7117;DHT22;3600;48.568;7.870;2023-02-23T07:36:47;9.40;99.90
7117;DHT22;3600;48.568;7.870;2023-02-23T07:39:14;9.40;99.90
7117;DHT22;3600;48.568;7.870;2023-02-23T07:41:41;9.50;99.90
7117;DHT22;3600;48.568;7.870;2023-02-23T07:44:08;9.60;99.90
7117;DHT22;3600;48.568;7.870;2023-02-23T07:46:35;9.60;99.90
7117;DHT22;3600;48.568;7.870;2023-02-23T07:49:02;9.60;99.90
7117;DHT22;3600;48.568;7.870;2023-02-23T07:51:29;9.70;99.90
7117;DHT22;3600;48.568;7.870;2023-02-23T07:53:55;9.70;99.90
7117;DHT22;3600;48.568;7.870;2023-02-23T07:56:22;9.70;99.90
7117;DHT22;3600;48.568;7.870;2023-02-23T07:58:49;9.70;99.90
7117;DHT22;3600;48.568;7.870;2023-02-23T08:01:16;9.80;99.90
7117;DHT22;3600;48.568;7.870;2023-02-23T08:03:43;9.80;99.90
7117;DHT22;3600;48.568;7.870;2023-02-23T08:06:16;9.90;99.90
7117;DHT22;3600;48.568;7.870;2023-02-23T08:08:43;9.90;99.90
7117;DHT22;3600;48.568;7.870;2023-02-23T08:11:10;9.90;99.90
7117;DHT22;3600;48.568;7.870;2023-02-23T08:13:37;9.90;99.90
7117;DHT22;3600;48.568;7.870;2023-02-23T08:16:05;9.90;99.90
7117;DHT22;3600;48.568;7.870;2023-02-23T08:18:31;10.00;99.90
7117;DHT22;3600;48.568;7.870;2023-02-23T08:21:00;10.00;99.90
7117;DHT22;3600;48.568;7.870;2023-02-23T08:23:31;10.00;99.90
7117;DHT22;3600;48.568;7.870;2023-02-23T08:25:59;10.10;99.90
7117;DHT22;3600;48.568;7.870;2023-02-23T08:28:26;10.10;99.90
7117;DHT22;3600;48.568;7.870;2023-02-23T08:30:53;10.10;99.90
7117;DHT22;3600;48.568;7.870;2023-02-23T08:33:21;10.10;99.90
7117;DHT22;3600;48.568;7.870;2023-02-23T08:35:47;10.10;99.90
7117;DHT22;3600;48.568;7.870;2023-02-23T08:38:14;10.20;99.90
7117;DHT22;3600;48.568;7.870;2023-02-23T08:40:42;10.20;99.90
7117;DHT22;3600;48.568;7.870;2023-02-23T08:43:09;10.20;99.90
7117;DHT22;3600;48.568;7.870;2023-02-23T08:45:36;10.30;99.90
7117;DHT22;3600;48.568;7.870;2023-02-23T08:48:06;10.30;99.90
7117;DHT22;3600;48.568;7.870;2023-02-23T08:50:33;10.30;99.90
7117;DHT22;3600;48.568;7.870;2023-02-23T08:53:00;10.30;99.90
7117;DHT22;3600;48.568;7.870;2023-02-23T08:55:27;10.40;99.90
7117;DHT22;3600;48.568;7.870;2023-02-23T08:57:53;10.40;99.90
7117;DHT22;3600;48.568;7.870;2023-02-23T09:00:20;10.40;99.90
7117;DHT22;3600;48.568;7.870;2023-02-23T09:02:47;10.40;99.90
7117;DHT22;3600;48.568;7.870;2023-02-23T09:05:14;10.40;99.90
7117;DHT22;3600;48.568;7.870;2023-02-23T09:07:42;10.40;99.90
7117;DHT22;3600;48.568;7.870;2023-02-23T09:10:18;10.40;99.90
7117;DHT22;3600;48.568;7.870;2023-02-23T09:12:45;10.50;99.90
7117;DHT22;3600;48.568;7.870;2023-02-23T09:15:12;10.50;99.90
7117;DHT22;3600;48.568;7.870;2023-02-23T09:17:39;10.60;99.90
7117;DHT22;3600;48.568;7.870;2023-02-23T09:20:09;10.60;99.90
7117;DHT22;3600;48.568;7.870;2023-02-23T09:22:39;10.50;99.90
7117;DHT22;3600;48.568;7.870;2023-02-23T09:25:07;10.50;99.90
7117;DHT22;3600;48.568;7.870;2023-02-23T09:27:35;10.50;99.90
7117;DHT22;3600;48.568;7.870;2023-02-23T09:30:03;10.60;99.90
7117;DHT22;3600;48.568;7.870;2023-02-23T09:32:30;10.60;99.90
7117;DHT22;3600;48.568;7.870;2023-02-23T09:34:57;10.50;99.90
7117;DHT22;3600;48.568;7.870;2023-02-23T09:37:23;10.50;99.90
7117;DHT22;3600;48.568;7.870;2023-02-23T09:39:50;10.60;99.90
7117;DHT22;3600;48.568;7.870;2023-02-23T09:45:01;10.70;99.90
7117;DHT22;3600;48.568;7.870;2023-02-23T09:47:53;10.80;99.90
7117;DHT22;3600;48.568;7.870;2023-02-23T09:50:27;10.80;99.90
7117;DHT22;3600;48.568;7.870;2023-02-23T09:53:17;10.90;99.90
7117;DHT22;3600;48.568;7.870;2023-02-23T09:55:47;11.00;99.90
7117;DHT22;3600;48.568;7.870;2023-02-23T09:58:26;11.00;99.90
7117;DHT22;3600;48.568;7.870;2023-02-23T10:01:33;11.10;99.90
7117;DHT22;3600;48.568;7.870;2023-02-23T10:04:16;11.10;99.90
7117;DHT22;3600;48.568;7.870;2023-02-23T10:06:59;11.10;99.90
7117;DHT22;3600;48.568;7.870;2023-02-23T10:09:43;11.20;99.90
7117;DHT22;3600;48.568;7.870;2023-02-23T10:15:17;11.10;99.90
7117;DHT22;3600;48.568;7.870;2023-02-23T10:18:11;11.10;99.90
7117;DHT22;3600;48.568;7.870;2023-02-23T10:23:57;11.20;99.90
7117;DHT22;3600;48.568;7.870;2023-02-23T10:26:19;11.20;99.90
7117;DHT22;3600;48.568;7.870;2023-02-23T10:28:47;11.30;99.90
7117;DHT22;3600;48.568;7.870;2023-02-23T10:31:39;11.30;99.90
7117;DHT22;3600;48.568;7.870;2023-02-23T10:34:12;11.40;99.90
7117;DHT22;3600;48.568;7.870;2023-02-23T10:36:45;11.40;99.90
7117;DHT22;3600;48.568;7.870;2023-02-23T10:39:15;11.50;99.90
7117;DHT22;3600;48.568;7.870;2023-02-23T10:41:43;11.60;99.90
7117;DHT22;3600;48.568;7.870;2023-02-23T10:44:20;11.60;99.90
7117;DHT22;3600;48.568;7.870;2023-02-23T10:46:53;11.70;99.90
7117;DHT22;3600;48.568;7.870;2023-02-23T10:49:26;11.90;99.90
7117;DHT22;3600;48.568;7.870;2023-02-23T10:51:55;11.70;99.90
7117;DHT22;3600;48.568;7.870;2023-02-23T10:57:11;12.00;99.90
7117;DHT22;3600;48.568;7.870;2023-02-23T10:59:57;12.10;99.90
7117;DHT22;3600;48.568;7.870;2023-02-23T11:02:25;12.30;99.90
7117;DHT22;3600;48.568;7.870;2023-02-23T11:04:55;12.30;99.90
7117;DHT22;3600;48.568;7.870;2023-02-23T11:07:30;12.50;99.90
7117;DHT22;3600;48.568;7.870;2023-02-23T11:10:25;12.40;99.90
7117;DHT22;3600;48.568;7.870;2023-02-23T11:12:53;12.70;99.90
7117;DHT22;3600;48.568;7.870;2023-02-23T11:15:31;12.80;99.90
7117;DHT22;3600;48.568;7.870;2023-02-23T11:18:21;12.80;99.90
7117;DHT22;3600;48.568;7.870;2023-02-23T11:20:49;12.80;99.90
7117;DHT22;3600;48.568;7.870;2023-02-23T11:23:23;12.90;99.90
7117;DHT22;3600;48.568;7.870;2023-02-23T11:25:57;12.90;99.90
7117;DHT22;3600;48.568;7.870;2023-02-23T11:28:30;12.60;99.90
7117;DHT22;3600;48.568;7.870;2023-02-23T11:31:04;12.60;99.90
7117;DHT22;3600;48.568;7.870;2023-02-23T11:33:37;12.70;99.90
7117;DHT22;3600;48.568;7.870;2023-02-23T11:36:19;12.80;99.90
7117;DHT22;3600;48.568;7.870;2023-02-23T11:39:05;12.60;99.90
7117;DHT22;3600;48.568;7.870;2023-02-23T11:41:34;12.80;99.90
7117;DHT22;3600;48.568;7.870;2023-02-23T11:44:03;12.90;99.90
7117;DHT22;3600;48.568;7.870;2023-02-23T11:46:35;13.00;99.90
7117;DHT22;3600;48.568;7.870;2023-02-23T11:49:06;13.10;99.90
7117;DHT22;3600;48.568;7.870;2023-02-23T11:51:40;13.10;99.90
7117;DHT22;3600;48.568;7.870;2023-02-23T11:54:26;13.00;99.90
7117;DHT22;3600;48.568;7.870;2023-02-23T11:56:53;13.10;99.90
7117;DHT22;3600;48.568;7.870;2023-02-23T11:59:28;13.10;99.90
7117;DHT22;3600;48.568;7.870;2023-02-23T12:02:03;13.10;99.90
7117;DHT22;3600;48.568;7.870;2023-02-23T12:04:36;13.20;99.90
7117;DHT22;3600;48.568;7.870;2023-02-23T12:07:45;13.30;99.90
7117;DHT22;3600;48.568;7.870;2023-02-23T12:21:35;13.60;99.90
7117;DHT22;3600;48.568;7.870;2023-02-23T12:26:55;13.80;99.90
7117;DHT22;3600;48.568;7.870;2023-02-23T12:29:26;13.60;99.90
7117;DHT22;3600;48.568;7.870;2023-02-23T12:32:01;13.60;99.90
7117;DHT22;3600;48.568;7.870;2023-02-23T12:34:35;13.60;99.90
7117;DHT22;3600;48.568;7.870;2023-02-23T12:37:22;13.60;99.90
7117;DHT22;3600;48.568;7.870;2023-02-23T12:43:18;13.60;99.90
7117;DHT22;3600;48.568;7.870;2023-02-23T12:46:13;13.70;99.90
7117;DHT22;3600;48.568;7.870;2023-02-23T12:51:55;13.70;99.90
7117;DHT22;3600;48.568;7.870;2023-02-23T12:54:24;13.60;99.90
7117;DHT22;3600;48.568;7.870;2023-02-23T13:00:04;13.60;99.90
7117;DHT22;3600;48.568;7.870;2023-02-23T13:08:57;13.60;99.90
7117;DHT22;3600;48.568;7.870;2023-02-23T13:20:23;13.50;99.90
7117;DHT22;3600;48.568;7.870;2023-02-23T13:22:54;13.40;99.90
7117;DHT22;3600;48.568;7.870;2023-02-23T13:25:38;13.50;99.90
7117;DHT22;3600;48.568;7.870;2023-02-23T13:28:15;13.50;99.90
7117;DHT22;3600;48.568;7.870;2023-02-23T13:30:43;13.60;99.90
7117;DHT22;3600;48.568;7.870;2023-02-23T13:33:27;13.60;99.90
7117;DHT22;3600;48.568;7.870;2023-02-23T13:36:09;13.50;99.90
7117;DHT22;3600;48.568;7.870;2023-02-23T13:44:28;13.30;99.90
7117;DHT22;3600;48.568;7.870;2023-02-23T13:52:29;13.20;99.90
7117;DHT22;3600;48.568;7.870;2023-02-23T13:54:59;13.30;99.90
7117;DHT22;3600;48.568;7.870;2023-02-23T13:57:33;13.40;99.90
7117;DHT22;3600;48.568;7.870;2023-02-23T14:00:02;13.40;99.90
7117;DHT22;3600;48.568;7.870;2023-02-23T14:05:00;13.00;99.90
7117;DHT22;3600;48.568;7.870;2023-02-23T14:07:36;13.10;99.90
7117;DHT22;3600;48.568;7.870;2023-02-23T14:10:07;13.20;99.90
7117;DHT22;3600;48.568;7.870;2023-02-23T14:12:38;13.10;99.90
7117;DHT22;3600;48.568;7.870;2023-02-23T14:23:34;13.00;99.90
7117;DHT22;3600;48.568;7.870;2023-02-23T14:28:39;13.10;99.90
7117;DHT22;3600;48.568;7.870;2023-02-23T14:33:50;12.90;99.90
7117;DHT22;3600;48.568;7.870;2023-02-23T14:44:10;13.20;99.90
7117;DHT22;3600;48.568;7.870;2023-02-23T14:47:01;13.20;99.90
7117;DHT22;3600;48.568;7.870;2023-02-23T14:49:35;13.00;99.90
7117;DHT22;3600;48.568;7.870;2023-02-23T14:52:07;13.10;99.90
7117;DHT22;3600;48.568;7.870;2023-02-23T14:54:38;13.20;99.90
7117;DHT22;3600;48.568;7.870;2023-02-23T14:57:15;13.10;99.90
7117;DHT22;3600;48.568;7.870;2023-02-23T14:59:44;13.10;99.90
7117;DHT22;3600;48.568;7.870;2023-02-23T15:04:42;12.90;99.90
7117;DHT22;3600;48.568;7.870;2023-02-23T15:07:34;12.90;99.90
7117;DHT22;3600;48.568;7.870;2023-02-23T15:10:16;12.70;99.90
7117;DHT22;3600;48.568;7.870;2023-02-23T15:12:45;12.80;99.90
7117;DHT22;3600;48.568;7.870;2023-02-23T15:15:17;12.70;99.90
7117;DHT22;3600;48.568;7.870;2023-02-23T15:17:46;12.60;99.90
7117;DHT22;3600;48.568;7.870;2023-02-23T15:20:18;12.60;99.90
7117;DHT22;3600;48.568;7.870;2023-02-23T15:22:52;12.50;99.90
7117;DHT22;3600;48.568;7.870;2023-02-23T15:25:23;12.50;99.90
7117;DHT22;3600;48.568;7.870;2023-02-23T15:27:51;12.50;99.90
7117;DHT22;3600;48.568;7.870;2023-02-23T15:30:25;12.60;99.90
7117;DHT22;3600;48.568;7.870;2023-02-23T15:33:00;12.50;99.90
7117;DHT22;3600;48.568;7.870;2023-02-23T15:35:28;12.40;99.90
7117;DHT22;3600;48.568;7.870;2023-02-23T15:37:57;12.40;99.90
7117;DHT22;3600;48.568;7.870;2023-02-23T15:40:44;12.40;99.90
7117;DHT22;3600;48.568;7.870;2023-02-23T15:43:11;12.60;99.90
7117;DHT22;3600;48.568;7.870;2023-02-23T15:45:45;12.60;99.90
7117;DHT22;3600;48.568;7.870;2023-02-23T15:48:21;12.80;99.90
7117;DHT22;3600;48.568;7.870;2023-02-23T15:50:55;12.80;99.90
7117;DHT22;3600;48.568;7.870;2023-02-23T15:53:33;12.80;99.90
7117;DHT22;3600;48.568;7.870;2023-02-23T15:56:10;12.50;99.90
7117;DHT22;3600;48.568;7.870;2023-02-23T15:58:45;12.50;99.90
7117;DHT22;3600;48.568;7.870;2023-02-23T16:01:27;12.50;99.90
7117;DHT22;3600;48.568;7.870;2023-02-23T16:03:59;12.40;99.90
7117;DHT22;3600;48.568;7.870;2023-02-23T16:12:01;12.10;99.90
7117;DHT22;3600;48.568;7.870;2023-02-23T16:14:43;12.10;99.90
7117;DHT22;3600;48.568;7.870;2023-02-23T16:17:33;12.10;99.90
7117;DHT22;3600;48.568;7.870;2023-02-23T16:22:41;12.00;99.90
7117;DHT22;3600;48.568;7.870;2023-02-23T16:25:13;11.90;99.90
7117;DHT22;3600;48.568;7.870;2023-02-23T16:27:42;11.80;99.90
7117;DHT22;3600;48.568;7.870;2023-02-23T16:30:32;11.80;99.90
7117;DHT22;3600;48.568;7.870;2023-02-23T16:33:15;11.80;99.90
7117;DHT22;3600;48.568;7.870;2023-02-23T16:35:49;11.80;99.90
7117;DHT22;3600;48.568;7.870;2023-02-23T16:41:20;11.80;99.90
7117;DHT22;3600;48.568;7.870;2023-02-23T16:43:49;11.70;99.90
7117;DHT22;3600;48.568;7.870;2023-02-23T16:46:17;11.60;99.90
7117;DHT22;3600;48.568;7.870;2023-02-23T16:48:44;11.60;99.90
7117;DHT22;3600;48.568;7.870;2023-02-23T16:51:20;11.60;99.90
7117;DHT22;3600;48.568;7.870;2023-02-23T16:53:49;11.50;99.90
7117;DHT22;3600;48.568;7.870;2023-02-23T16:56:19;11.50;99.90
7117;DHT22;3600;48.568;7.870;2023-02-23T16:58:54;11.50;99.90
7117;DHT22;3600;48.568;7.870;2023-02-23T17:01:23;11.50;99.90
7117;DHT22;3600;48.568;7.870;2023-02-23T17:03:50;11.40;99.90
7117;DHT22;3600;48.568;7.870;2023-02-23T17:06:20;11.40;99.90
7117;DHT22;3600;48.568;7.870;2023-02-23T17:08:48;11.30;99.90
7117;DHT22;3600;48.568;7.870;2023-02-23T17:11:23;11.20;99.90
7117;DHT22;3600;48.568;7.870;2023-02-23T17:13:50;11.10;99.90
7117;DHT22;3600;48.568;7.870;2023-02-23T17:16:17;11.10;99.90
7117;DHT22;3600;48.568;7.870;2023-02-23T17:18:45;11.10;99.90
7117;DHT22;3600;48.568;7.870;2023-02-23T17:21:13;11.00;99.90
7117;DHT22;3600;48.568;7.870;2023-02-23T17:23:41;10.90;99.90
7117;DHT22;3600;48.568;7.870;2023-02-23T17:26:22;10.90;99.90
7117;DHT22;3600;48.568;7.870;2023-02-23T17:28:50;10.80;99.90
7117;DHT22;3600;48.568;7.870;2023-02-23T17:31:18;10.80;99.90
7117;DHT22;3600;48.568;7.870;2023-02-23T17:33:46;10.80;99.90
7117;DHT22;3600;48.568;7.870;2023-02-23T17:36:15;10.80;99.90
7117;DHT22;3600;48.568;7.870;2023-02-23T17:38:42;10.70;99.90
7117;DHT22;3600;48.568;7.870;2023-02-23T17:41:15;10.70;99.90
7117;DHT22;3600;48.568;7.870;2023-02-23T17:43:42;10.70;99.90
7117;DHT22;3600;48.568;7.870;2023-02-23T17:46:10;10.70;99.90
7117;DHT22;3600;48.568;7.870;2023-02-23T17:48:37;10.70;99.90
7117;DHT22;3600;48.568;7.870;2023-02-23T17:51:08;10.60;99.90
7117;DHT22;3600;48.568;7.870;2023-02-23T17:53:39;10.50;99.90
7117;DHT22;3600;48.568;7.870;2023-02-23T17:56:06;10.50;99.90
7117;DHT22;3600;48.568;7.870;2023-02-23T17:58:34;10.40;99.90
7117;DHT22;3600;48.568;7.870;2023-02-23T18:01:03;10.30;99.90
7117;DHT22;3600;48.568;7.870;2023-02-23T18:03:33;10.20;99.90
7117;DHT22;3600;48.568;7.870;2023-02-23T18:06:05;10.20;99.90
7117;DHT22;3600;48.568;7.870;2023-02-23T18:08:32;10.20;99.90
7117;DHT22;3600;48.568;7.870;2023-02-23T18:10:59;10.20;99.90
7117;DHT22;3600;48.568;7.870;2023-02-23T18:13:28;10.20;99.90
7117;DHT22;3600;48.568;7.870;2023-02-23T18:16:05;10.20;99.90
7117;DHT22;3600;48.568;7.870;2023-02-23T18:18:37;10.10;99.90
7117;DHT22;3600;48.568;7.870;2023-02-23T18:21:10;10.10;99.90
7117;DHT22;3600;48.568;7.870;2023-02-23T18:23:37;10.10;99.90
7117;DHT22;3600;48.568;7.870;2023-02-23T18:26:05;10.10;99.90
7117;DHT22;3600;48.568;7.870;2023-02-23T18:28:33;10.00;99.90
7117;DHT22;3600;48.568;7.870;2023-02-23T18:31:01;9.90;99.90
7117;DHT22;3600;48.568;7.870;2023-02-23T18:33:27;9.90;99.90
7117;DHT22;3600;48.568;7.870;2023-02-23T18:35:54;9.80;99.90
7117;DHT22;3600;48.568;7.870;2023-02-23T18:38:21;9.80;99.90
7117;DHT22;3600;48.568;7.870;2023-02-23T18:40:48;9.80;99.90
7117;DHT22;3600;48.568;7.870;2023-02-23T18:43:15;9.80;99.90
7117;DHT22;3600;48.568;7.870;2023-02-23T18:45:42;9.70;99.90
7117;DHT22;3600;48.568;7.870;2023-02-23T18:48:08;9.70;99.90
7117;DHT22;3600;48.568;7.870;2023-02-23T18:50:39;9.80;99.90
7117;DHT22;3600;48.568;7.870;2023-02-23T18:53:08;9.70;99.90
7117;DHT22;3600;48.568;7.870;2023-02-23T18:55:36;9.60;99.90
7117;DHT22;3600;48.568;7.870;2023-02-23T18:58:03;9.50;99.90
7117;DHT22;3600;48.568;7.870;2023-02-23T19:00:32;9.40;99.90
7117;DHT22;3600;48.568;7.870;2023-02-23T19:03:05;9.30;99.90